createdAt,value
2023-02-18T00:01:37.924Z,11.63
2023-02-18T00:04:04.928Z,11.62
2023-02-18T00:06:34.868Z,11.60
2023-02-18T00:09:04.100Z,11.61
2023-02-18T00:11:35.085Z,11.61
2023-02-18T00:14:04.385Z,11.61
2023-02-18T00:16:31.974Z,11.60
2023-02-18T00:19:06.328Z,11.60
2023-02-18T00:21:35.342Z,11.58
2023-02-18T00:24:03.877Z,11.58
2023-02-18T00:26:30.991Z,11.58
2023-02-18T00:28:57.964Z,11.57
2023-02-18T00:31:34.549Z,11.57
2023-02-18T00:34:03.950Z,11.57
2023-02-18T00:36:31.273Z,11.57
2023-02-18T00:39:03.867Z,11.58
2023-02-18T00:41:32.334Z,11.57
2023-02-18T00:43:59.470Z,11.57
2023-02-18T00:46:27.609Z,11.57
2023-02-18T00:48:55.280Z,11.56
2023-02-18T00:51:23.546Z,11.56
2023-02-18T00:53:50.689Z,11.56
2023-02-18T00:56:17.938Z,11.56
2023-02-18T00:58:44.921Z,11.55
2023-02-18T01:01:12.655Z,11.55
2023-02-18T01:03:42.840Z,11.55
2023-02-18T01:06:11.680Z,11.55
2023-02-18T01:08:40.636Z,11.55
2023-02-18T01:11:10.228Z,11.55
2023-02-18T01:13:38.012Z,11.56
2023-02-18T01:16:07.776Z,11.55
2023-02-18T01:18:35.932Z,11.55
2023-02-18T01:21:08.437Z,11.54
2023-02-18T01:23:38.685Z,11.54
2023-02-18T01:26:06.627Z,11.53
2023-02-18T01:28:34.208Z,11.53
2023-02-18T01:31:07.639Z,11.52
2023-02-18T01:33:35.547Z,11.52
2023-02-18T01:36:03.420Z,11.52
2023-02-18T01:38:30.620Z,11.52
2023-02-18T01:40:57.596Z,11.51
2023-02-18T01:43:24.719Z,11.51
2023-02-18T01:45:58.165Z,11.51
2023-02-18T01:48:49.437Z,11.51
2023-02-18T01:51:35.744Z,11.50
2023-02-18T01:54:16.187Z,11.50
2023-02-18T01:56:58.955Z,11.50
2023-02-18T01:59:52.013Z,11.49
2023-02-18T02:02:25.078Z,11.50
2023-02-18T02:04:54.353Z,11.50
2023-02-18T02:07:24.253Z,11.49
2023-02-18T02:09:58.372Z,11.49
2023-02-18T02:12:31.514Z,11.49
2023-02-18T02:15:31.556Z,11.48
2023-02-18T02:18:35.223Z,11.48
2023-02-18T02:21:29.217Z,11.48
2023-02-18T02:24:55.418Z,11.46
2023-02-18T02:27:32.309Z,11.46
2023-02-18T02:30:36.618Z,11.46
2023-02-18T02:33:50.350Z,11.45
2023-02-18T02:36:38.967Z,11.45
2023-02-18T02:39:15.121Z,11.45
2023-02-18T02:42:28.021Z,11.45
2023-02-18T02:45:09.792Z,11.45
2023-02-18T02:47:49.892Z,11.45
2023-02-18T02:50:54.869Z,11.44
2023-02-18T02:53:27.352Z,11.45
2023-02-18T02:55:56.075Z,11.45
2023-02-18T02:58:24.240Z,11.43
2023-02-18T03:01:21.677Z,11.41
2023-02-18T03:04:23.000Z,11.42
2023-02-18T03:07:12.167Z,11.40
2023-02-18T03:10:08.114Z,11.39
2023-02-18T03:12:53.640Z,11.38
2023-02-18T03:15:34.202Z,11.38
2023-02-18T03:18:08.886Z,11.40
2023-02-18T03:20:57.473Z,11.39
2023-02-18T03:23:34.812Z,11.39
2023-02-18T03:26:06.271Z,11.38
2023-02-18T03:28:35.094Z,11.38
2023-02-18T03:31:13.323Z,11.37
2023-02-18T03:33:52.169Z,11.37
2023-02-18T03:36:21.087Z,11.36
2023-02-18T03:39:15.988Z,11.35
2023-02-18T03:41:43.936Z,11.35
2023-02-18T03:44:12.728Z,11.34
2023-02-18T03:46:45.381Z,11.34
2023-02-18T03:49:14.222Z,11.34
2023-02-18T03:51:41.987Z,11.33
2023-02-18T03:54:10.153Z,11.32
2023-02-18T03:56:37.790Z,11.32
2023-02-18T03:59:04.843Z,11.33
2023-02-18T04:01:31.866Z,11.32
2023-02-18T04:03:59.060Z,11.33
2023-02-18T04:06:26.054Z,11.32
2023-02-18T04:08:53.036Z,11.33
2023-02-18T04:11:20.009Z,11.33
2023-02-18T04:13:47.336Z,11.34
2023-02-18T04:16:14.782Z,11.32
2023-02-18T04:18:41.796Z,11.33
2023-02-18T04:21:09.595Z,11.32
2023-02-18T04:23:36.505Z,11.33
2023-02-18T04:26:03.583Z,11.32
2023-02-18T04:28:30.487Z,11.32
2023-02-18T04:30:57.427Z,11.34
2023-02-18T04:33:24.344Z,11.32
2023-02-18T04:35:51.296Z,11.32
2023-02-18T04:38:18.244Z,11.32
2023-02-18T04:40:45.164Z,11.33
2023-02-18T04:43:12.275Z,11.32
2023-02-18T04:45:39.201Z,11.33
2023-02-18T04:48:06.243Z,11.33
2023-02-18T04:50:33.163Z,11.31
2023-02-18T04:53:00.098Z,11.31
2023-02-18T04:55:28.084Z,11.31
2023-02-18T04:57:55.000Z,11.31
2023-02-18T05:00:22.097Z,11.30
2023-02-18T05:02:49.041Z,11.30
2023-02-18T05:05:16.445Z,11.29
2023-02-18T05:07:43.452Z,11.28
2023-02-18T05:10:15.611Z,11.27
2023-02-18T05:12:42.638Z,11.25
2023-02-18T05:15:10.322Z,11.24
2023-02-18T05:17:37.254Z,11.23
2023-02-18T05:20:08.915Z,11.23
2023-02-18T05:22:37.226Z,11.21
2023-02-18T05:25:05.204Z,11.18
2023-02-18T05:27:32.328Z,11.17
2023-02-18T05:29:59.316Z,11.16
2023-02-18T05:32:26.355Z,11.16
2023-02-18T05:34:53.285Z,11.15
2023-02-18T05:37:20.170Z,11.14
2023-02-18T05:39:47.112Z,11.13
2023-02-18T05:42:14.227Z,11.11
2023-02-18T05:44:41.191Z,11.12
2023-02-18T05:47:11.767Z,11.10
2023-02-18T05:49:41.471Z,11.09
2023-02-18T05:52:10.469Z,11.09
2023-02-18T05:54:37.993Z,11.08
2023-02-18T05:57:05.040Z,11.08
2023-02-18T05:59:32.115Z,11.08
2023-02-18T06:01:59.132Z,11.08
2023-02-18T06:04:26.053Z,11.06
2023-02-18T06:06:52.999Z,11.05
2023-02-18T06:09:19.908Z,11.04
2023-02-18T06:11:46.820Z,11.05
2023-02-18T06:14:13.757Z,11.04
2023-02-18T06:16:40.767Z,11.03
2023-02-18T06:19:08.003Z,11.02
2023-02-18T06:21:35.306Z,11.00
2023-02-18T06:24:02.504Z,11.01
2023-02-18T06:26:29.447Z,10.99
2023-02-18T06:28:56.398Z,10.98
2023-02-18T06:31:23.418Z,10.97
2023-02-18T06:33:50.519Z,10.96
2023-02-18T06:36:17.471Z,10.95
2023-02-18T06:38:45.735Z,10.93
2023-02-18T06:41:14.137Z,10.93
2023-02-18T06:43:42.050Z,10.91
2023-02-18T06:46:09.736Z,10.91
2023-02-18T06:48:38.079Z,10.90
2023-02-18T06:51:05.478Z,10.89
2023-02-18T06:53:32.478Z,10.91
2023-02-18T06:55:59.422Z,10.91
2023-02-18T06:58:26.390Z,10.91
2023-02-18T07:00:53.354Z,10.90
2023-02-18T07:03:20.458Z,10.91
2023-02-18T07:05:47.571Z,10.91
2023-02-18T07:08:14.891Z,10.93
2023-02-18T07:10:41.883Z,10.94
2023-02-18T07:13:08.854Z,10.95
2023-02-18T07:15:35.805Z,10.95
2023-02-18T07:18:02.795Z,10.96
2023-02-18T07:20:30.146Z,10.97
2023-02-18T07:22:57.129Z,10.99
2023-02-18T07:25:24.543Z,10.99
2023-02-18T07:27:51.844Z,11.02
2023-02-18T07:30:20.572Z,11.04
2023-02-18T07:32:47.755Z,11.04
2023-02-18T07:35:17.256Z,11.06
2023-02-18T07:37:48.839Z,11.08
2023-02-18T07:40:20.307Z,11.10
2023-02-18T07:42:47.776Z,11.13
2023-02-18T07:45:14.894Z,11.15
2023-02-18T07:47:42.510Z,11.17
2023-02-18T07:50:10.416Z,11.20
2023-02-18T07:52:37.585Z,11.25
2023-02-18T07:55:04.908Z,11.27
2023-02-18T07:57:32.035Z,11.30
2023-02-18T07:59:58.954Z,11.34
2023-02-18T08:02:26.002Z,11.36
2023-02-18T08:04:53.002Z,11.40
2023-02-18T08:07:21.888Z,11.43
2023-02-18T08:09:50.491Z,11.47
2023-02-18T08:12:17.871Z,11.50
2023-02-18T08:14:45.284Z,11.54
2023-02-18T08:17:12.216Z,11.58
2023-02-18T08:19:39.206Z,11.62
2023-02-18T08:22:06.154Z,11.65
2023-02-18T08:24:33.246Z,11.68
2023-02-18T08:27:01.555Z,11.70
2023-02-18T08:29:29.640Z,11.74
2023-02-18T08:31:58.095Z,11.77
2023-02-18T08:34:26.332Z,11.79
2023-02-18T08:36:53.281Z,11.82
2023-02-18T08:39:20.205Z,11.83
2023-02-18T08:41:47.225Z,11.84
2023-02-18T08:44:14.331Z,11.85
2023-02-18T08:46:41.367Z,11.87
2023-02-18T08:49:08.656Z,11.89
2023-02-18T08:51:36.019Z,11.92
2023-02-18T08:54:03.029Z,11.92
2023-02-18T08:56:30.079Z,11.95
2023-02-18T08:58:57.018Z,11.96
2023-02-18T09:01:24.122Z,12.00
2023-02-18T09:03:51.162Z,12.02
2023-02-18T09:06:18.152Z,12.06
2023-02-18T09:08:45.142Z,12.09
2023-02-18T09:11:12.857Z,12.13
2023-02-18T09:13:40.216Z,12.14
2023-02-18T09:16:11.947Z,12.21
2023-02-18T09:18:39.170Z,12.24
2023-02-18T09:21:09.755Z,12.27
2023-02-18T09:23:37.136Z,12.28
2023-02-18T09:26:12.781Z,12.32
2023-02-18T09:28:40.350Z,12.37
2023-02-18T09:31:11.103Z,12.40
2023-02-18T09:33:44.251Z,12.45
2023-02-18T09:36:12.786Z,12.49
2023-02-18T09:38:39.782Z,12.52
2023-02-18T09:41:28.417Z,12.55
2023-02-18T09:44:01.279Z,12.56
2023-02-18T09:46:46.547Z,12.59
2023-02-18T09:49:25.556Z,12.59
2023-02-18T09:51:55.602Z,12.62
2023-02-18T09:54:27.071Z,12.63
2023-02-18T09:56:54.445Z,12.63
2023-02-18T09:59:24.783Z,12.66
2023-02-18T10:01:54.411Z,12.67
2023-02-18T10:04:40.740Z,12.70
2023-02-18T10:07:28.507Z,12.73
2023-02-18T10:09:59.215Z,12.76
2023-02-18T10:12:27.438Z,12.79
2023-02-18T10:14:59.166Z,12.84
2023-02-18T10:17:31.190Z,12.86
2023-02-18T10:20:01.013Z,12.87
2023-02-18T10:22:29.864Z,12.91
2023-02-18T10:25:03.657Z,12.92
2023-02-18T10:27:37.403Z,12.93
2023-02-18T10:30:22.833Z,12.94
2023-02-18T10:32:56.296Z,12.95
2023-02-18T10:35:38.420Z,12.96
2023-02-18T10:38:26.768Z,12.99
2023-02-18T10:41:30.370Z,13.01
2023-02-18T10:44:18.047Z,13.04
2023-02-18T10:47:04.678Z,13.05
2023-02-18T10:49:41.747Z,13.10
2023-02-18T10:52:16.962Z,13.12
2023-02-18T10:55:10.811Z,13.15
2023-02-18T10:57:53.499Z,13.18
2023-02-18T11:00:27.236Z,13.20
2023-02-18T11:03:17.605Z,13.24
2023-02-18T11:05:47.861Z,13.25
2023-02-18T11:08:21.709Z,13.25
2023-02-18T11:10:50.348Z,13.25
2023-02-18T11:13:32.706Z,13.24
2023-02-18T11:16:09.212Z,13.24
2023-02-18T11:18:43.717Z,13.22
2023-02-18T11:21:34.436Z,13.20
2023-02-18T11:24:15.244Z,13.18
2023-02-18T11:26:44.129Z,13.18
2023-02-18T11:29:25.913Z,13.18
2023-02-18T11:31:56.906Z,13.15
2023-02-18T11:34:29.743Z,13.14
2023-02-18T11:37:10.408Z,13.11
2023-02-18T11:39:43.057Z,13.12
2023-02-18T11:42:15.988Z,13.12
2023-02-18T11:44:56.775Z,13.13
2023-02-18T11:47:33.786Z,13.14
2023-02-18T11:50:09.514Z,13.13
2023-02-18T11:52:40.214Z,13.14
2023-02-18T11:55:24.822Z,13.14
2023-02-18T11:57:56.508Z,13.15
2023-02-18T12:00:33.104Z,13.15
2023-02-18T12:03:04.640Z,13.14
2023-02-18T12:05:33.224Z,13.13
2023-02-18T12:08:25.479Z,13.15
2023-02-18T12:11:01.816Z,13.16
2023-02-18T12:13:38.169Z,13.16
2023-02-18T12:16:46.977Z,13.15
2023-02-18T12:19:37.035Z,13.15
2023-02-18T12:22:32.286Z,13.12
2023-02-18T12:25:31.022Z,13.08
2023-02-18T12:28:22.058Z,13.08
2023-02-18T12:31:22.889Z,13.09
2023-02-18T12:34:11.396Z,13.10
2023-02-18T12:36:48.399Z,13.13
2023-02-18T12:39:54.863Z,13.15
2023-02-18T12:42:49.583Z,13.17
2023-02-18T12:45:53.095Z,13.19
2023-02-18T12:48:33.168Z,13.18
2023-02-18T12:51:19.943Z,13.17
2023-02-18T12:54:23.511Z,13.17
2023-02-18T12:57:33.659Z,13.18
2023-02-18T13:00:28.003Z,13.18
2023-02-18T13:03:20.033Z,13.18
2023-02-18T13:06:38.573Z,13.18
2023-02-18T13:09:23.812Z,13.21
2023-02-18T13:12:23.680Z,13.23
2023-02-18T13:15:03.247Z,13.25
2023-02-18T13:17:37.923Z,13.27
2023-02-18T13:20:39.878Z,13.31
2023-02-18T13:23:16.133Z,13.35
2023-02-18T13:25:47.154Z,13.38
2023-02-18T13:28:31.928Z,13.42
2023-02-18T13:31:58.105Z,13.48
2023-02-18T13:34:48.467Z,13.51
2023-02-18T13:37:39.732Z,13.54
2023-02-18T13:40:19.422Z,13.54
2023-02-18T13:42:46.340Z,13.57
2023-02-18T13:45:29.578Z,13.56
2023-02-18T13:47:57.741Z,13.57
2023-02-18T13:50:25.661Z,13.60
2023-02-18T13:53:08.113Z,13.58
2023-02-18T13:55:49.017Z,13.61
2023-02-18T13:58:23.622Z,13.59
2023-02-18T14:01:02.077Z,13.61
2023-02-18T14:03:42.397Z,13.61
2023-02-18T14:06:38.940Z,13.65
2023-02-18T14:09:25.856Z,13.66
2023-02-18T14:12:30.517Z,13.65
2023-02-18T14:14:58.820Z,13.65
2023-02-18T14:17:40.812Z,13.62
2023-02-18T14:20:07.603Z,13.61
2023-02-18T14:22:49.189Z,13.61
2023-02-18T14:25:27.020Z,13.60
2023-02-18T14:27:54.532Z,13.59
2023-02-18T14:30:40.629Z,13.59
2023-02-18T14:33:16.232Z,13.55
2023-02-18T14:36:05.362Z,13.52
2023-02-18T14:39:16.625Z,13.49
2023-02-18T14:42:25.525Z,13.43
2023-02-18T14:45:09.550Z,13.42
2023-02-18T14:48:30.358Z,13.40
2023-02-18T14:51:00.126Z,13.35
2023-02-18T14:53:28.484Z,13.34
2023-02-18T14:56:02.375Z,13.28
2023-02-18T14:58:38.528Z,13.25
2023-02-18T15:01:23.040Z,13.22
2023-02-18T15:03:54.013Z,13.17
2023-02-18T15:06:35.139Z,13.15
2023-02-18T15:09:19.522Z,13.13
2023-02-18T15:12:01.547Z,13.07
2023-02-18T15:14:38.780Z,13.02
2023-02-18T15:17:24.018Z,12.97
2023-02-18T15:19:58.381Z,12.91
2023-02-18T15:22:31.190Z,12.90
2023-02-18T15:24:58.781Z,12.88
2023-02-18T15:27:32.980Z,12.86
2023-02-18T15:30:19.468Z,12.82
2023-02-18T15:32:54.959Z,12.79
2023-02-18T15:35:29.283Z,12.74
2023-02-18T15:38:00.138Z,12.72
2023-02-18T15:40:35.200Z,12.68
2023-02-18T15:43:06.307Z,12.66
2023-02-18T15:45:43.426Z,12.65
2023-02-18T15:48:48.765Z,12.61
2023-02-18T15:51:22.622Z,12.58
2023-02-18T15:53:54.343Z,12.55
2023-02-18T15:56:32.430Z,12.53
2023-02-18T15:59:25.493Z,12.50
2023-02-18T16:02:08.980Z,12.48
2023-02-18T16:04:42.007Z,12.45
2023-02-18T16:07:37.404Z,12.41
2023-02-18T16:10:44.563Z,12.37
2023-02-18T16:13:16.852Z,12.34
2023-02-18T16:15:47.700Z,12.30
2023-02-18T16:18:41.688Z,12.26
2023-02-18T16:21:17.674Z,12.22
2023-02-18T16:24:00.557Z,12.19
2023-02-18T16:26:30.688Z,12.16
2023-02-18T16:29:16.838Z,12.15
2023-02-18T16:31:43.848Z,12.09
2023-02-18T16:34:11.205Z,12.07
2023-02-18T16:36:58.111Z,12.05
2023-02-18T16:39:25.244Z,12.01
2023-02-18T16:41:52.158Z,11.97
2023-02-18T16:44:19.087Z,11.95
2023-02-18T16:46:46.214Z,11.90
2023-02-18T16:49:14.190Z,11.86
2023-02-18T16:51:42.628Z,11.82
2023-02-18T16:54:14.008Z,11.81
2023-02-18T16:56:41.032Z,11.77
2023-02-18T16:59:08.122Z,11.74
2023-02-18T17:01:44.971Z,11.71
2023-02-18T17:04:15.354Z,11.70
2023-02-18T17:06:44.923Z,11.67
2023-02-18T17:09:23.512Z,11.64
2023-02-18T17:11:53.481Z,11.63
2023-02-18T17:14:22.420Z,11.60
2023-02-18T17:16:52.801Z,11.59
2023-02-18T17:19:20.381Z,11.56
2023-02-18T17:21:49.006Z,11.54
2023-02-18T17:24:18.400Z,11.53
2023-02-18T17:26:45.443Z,11.51
2023-02-18T17:29:12.650Z,11.50
2023-02-18T17:31:47.081Z,11.49
2023-02-18T17:34:22.362Z,11.46
2023-02-18T17:36:49.280Z,11.44
2023-02-18T17:39:18.164Z,11.43
2023-02-18T17:41:45.281Z,11.41
2023-02-18T17:44:21.148Z,11.39
2023-02-18T17:46:52.235Z,11.39
2023-02-18T17:49:19.208Z,11.37
2023-02-18T17:51:46.169Z,11.36
2023-02-18T17:54:18.586Z,11.34
2023-02-18T17:56:46.141Z,11.33
2023-02-18T17:59:13.281Z,11.31
2023-02-18T18:01:40.351Z,11.30
2023-02-18T18:04:19.289Z,11.28
2023-02-18T18:06:47.037Z,11.27
2023-02-18T18:09:14.046Z,11.25
2023-02-18T18:11:41.306Z,11.24
2023-02-18T18:14:13.203Z,11.22
2023-02-18T18:16:40.370Z,11.20
2023-02-18T18:19:07.412Z,11.18
2023-02-18T18:21:36.109Z,11.16
2023-02-18T18:24:04.061Z,11.13
2023-02-18T18:26:31.371Z,11.12
2023-02-18T18:28:58.455Z,11.09
2023-02-18T18:31:25.682Z,11.08
2023-02-18T18:33:53.437Z,11.07
2023-02-18T18:36:23.880Z,11.06
2023-02-18T18:38:51.050Z,11.04
2023-02-18T18:41:21.481Z,11.03
2023-02-18T18:43:49.553Z,11.01
2023-02-18T18:46:16.818Z,11.00
2023-02-18T18:48:43.769Z,10.99
2023-02-18T18:51:18.550Z,10.97
2023-02-18T18:53:45.656Z,10.96
2023-02-18T18:56:13.629Z,10.95
2023-02-18T18:58:40.699Z,10.93
2023-02-18T19:01:19.427Z,10.91
2023-02-18T19:03:47.411Z,10.90
2023-02-18T19:06:16.603Z,10.89
2023-02-18T19:08:45.449Z,10.89
2023-02-18T19:11:12.838Z,10.88
2023-02-18T19:13:40.654Z,10.87
2023-02-18T19:16:24.434Z,10.85
2023-02-18T19:18:51.660Z,10.85
2023-02-18T19:21:18.768Z,10.82
2023-02-18T19:23:46.109Z,10.81
2023-02-18T19:26:16.913Z,10.80
2023-02-18T19:28:45.653Z,10.78
2023-02-18T19:31:13.134Z,10.76
2023-02-18T19:33:40.406Z,10.74
2023-02-18T19:36:11.687Z,10.72
2023-02-18T19:38:39.211Z,10.73
2023-02-18T19:41:19.112Z,10.71
2023-02-18T19:43:48.624Z,10.69
2023-02-18T19:46:18.636Z,10.68
2023-02-18T19:48:52.218Z,10.66
2023-02-18T19:51:21.166Z,10.64
2023-02-18T19:53:48.127Z,10.63
2023-02-18T19:56:15.309Z,10.63
2023-02-18T19:58:42.268Z,10.62
2023-02-18T20:01:13.902Z,10.60
2023-02-18T20:03:41.563Z,10.60
2023-02-18T20:06:19.769Z,10.57
2023-02-18T20:08:47.225Z,10.57
2023-02-18T20:11:14.229Z,10.56
2023-02-18T20:13:42.077Z,10.55
2023-02-18T20:16:10.372Z,10.54
2023-02-18T20:18:37.340Z,10.53
2023-02-18T20:21:04.672Z,10.52
2023-02-18T20:23:31.633Z,10.52
2023-02-18T20:26:02.585Z,10.51
2023-02-18T20:28:29.569Z,10.48
2023-02-18T20:31:08.705Z,10.46
2023-02-18T20:33:36.264Z,10.47
2023-02-18T20:36:05.124Z,10.45
2023-02-18T20:38:32.570Z,10.45
2023-02-18T20:41:14.372Z,10.44
2023-02-18T20:43:41.798Z,10.44
2023-02-18T20:46:13.112Z,10.45
2023-02-18T20:48:40.154Z,10.45
2023-02-18T20:51:14.427Z,10.43
2023-02-18T20:53:43.546Z,10.44
2023-02-18T20:56:10.937Z,10.46
2023-02-18T20:58:38.578Z,10.43
2023-02-18T21:01:12.206Z,10.42
2023-02-18T21:03:40.102Z,10.42
2023-02-18T21:06:13.706Z,10.41
2023-02-18T21:08:41.404Z,10.40
2023-02-18T21:11:15.444Z,10.40
2023-02-18T21:13:43.111Z,10.40
2023-02-18T21:16:10.400Z,10.39
2023-02-18T21:18:40.462Z,10.38
2023-02-18T21:21:10.253Z,10.37
2023-02-18T21:23:38.946Z,10.35
2023-02-18T21:26:22.337Z,10.34
2023-02-18T21:28:52.932Z,10.34
2023-02-18T21:31:24.669Z,10.31
2023-02-18T21:33:52.101Z,10.30
2023-02-18T21:36:20.761Z,10.29
2023-02-18T21:38:56.745Z,10.26
2023-02-18T21:41:24.663Z,10.24
2023-02-18T21:43:52.120Z,10.23
2023-02-18T21:46:31.797Z,10.22
2023-02-18T21:49:02.057Z,10.20
2023-02-18T21:51:52.393Z,10.18
2023-02-18T21:54:22.994Z,10.16
2023-02-18T21:56:50.540Z,10.16
2023-02-18T21:59:19.744Z,10.15
2023-02-18T22:01:47.846Z,10.13
2023-02-18T22:04:16.700Z,10.12
2023-02-18T22:06:43.944Z,10.10
2023-02-18T22:09:12.296Z,10.09
2023-02-18T22:11:44.852Z,10.08
2023-02-18T22:14:13.820Z,10.06
2023-02-18T22:16:41.827Z,10.06
2023-02-18T22:19:11.172Z,10.05
2023-02-18T22:21:38.381Z,10.05
2023-02-18T22:24:06.522Z,10.04
2023-02-18T22:26:34.156Z,10.04
2023-02-18T22:29:01.164Z,10.02
2023-02-18T22:31:30.762Z,10.02
2023-02-18T22:34:00.501Z,10.02
2023-02-18T22:36:29.176Z,10.01
2023-02-18T22:38:58.183Z,10.01
2023-02-18T22:41:28.271Z,10.01
2023-02-18T22:44:05.818Z,10.00
2023-02-18T22:46:36.737Z,10.01
2023-02-18T22:49:06.768Z,10.00
2023-02-18T22:51:37.961Z,10.01
2023-02-18T22:54:08.187Z,10.01
2023-02-18T22:56:35.121Z,10.01
2023-02-18T22:59:02.282Z,10.00
2023-02-18T23:01:33.998Z,9.99
2023-02-18T23:04:11.533Z,9.98
2023-02-18T23:06:41.369Z,9.98
2023-02-18T23:09:13.048Z,9.98
2023-02-18T23:11:40.064Z,9.98
2023-02-18T23:14:18.712Z,9.98
2023-02-18T23:17:07.540Z,9.97
2023-02-18T23:19:36.545Z,9.97
2023-02-18T23:22:04.106Z,9.96
2023-02-18T23:24:36.829Z,9.96
2023-02-18T23:27:04.819Z,9.95
2023-02-18T23:29:31.980Z,9.95
2023-02-18T23:31:58.935Z,9.94
2023-02-18T23:34:25.933Z,9.94
2023-02-18T23:36:52.900Z,9.93
2023-02-18T23:39:22.311Z,9.93
2023-02-18T23:41:50.244Z,9.93
2023-02-18T23:44:21.633Z,9.94
2023-02-18T23:46:49.005Z,9.93
2023-02-18T23:49:19.548Z,9.93
2023-02-18T23:51:46.486Z,9.92
2023-02-18T23:54:13.446Z,9.91
2023-02-18T23:56:40.962Z,9.91
2023-02-18T23:59:07.948Z,9.92
